Time;durP1;ratioP1;P1;durP2;ratioP2;P2;SDS_P1;SDS_P2;PMS_P1;PMS_P2;Temp;Humidity;BMP_temperature;BMP_pressure;BME280_temperature;BME280_humidity;BME280_pressure;Samples;Min_cycle;Max_cycle;Signal;HPM_P1;HPM_P2
2022/12/10 00:01:24;;;;;;;9.97;7.77;;;7.90;72.60;7.70;95065.00;;;;5111476;28;20206;-86
2022/12/10 00:03:52;;;;;;;11.70;8.93;;;8.00;72.60;7.70;95065.00;;;;5110852;28;20250;-83
2022/12/10 00:06:23;;;;;;;12.07;8.17;;;7.90;72.50;7.70;95057.00;;;;5110086;28;20190;-87
2022/12/10 00:08:51;;;;;;;10.10;7.70;;;8.00;72.60;7.70;95056.00;;;;5108894;28;20298;-87
2022/12/10 00:11:21;;;;;;;10.07;8.07;;;7.90;72.30;7.70;95046.00;;;;5108764;28;20237;-84
2022/12/10 00:13:51;;;;;;;11.50;8.23;;;8.00;72.30;7.70;95047.00;;;;5107234;28;20900;-86
2022/12/10 00:16:22;;;;;;;9.83;8.00;;;7.90;72.20;7.70;95039.00;;;;5107407;28;20240;-84
2022/12/10 00:18:50;;;;;;;11.00;8.10;;;7.90;72.30;7.70;95038.00;;;;5108517;28;20742;-87
2022/12/10 00:21:20;;;;;;;11.53;8.37;;;7.90;72.30;7.70;95044.00;;;;5108370;28;20605;-85
2022/12/10 00:23:48;;;;;;;12.00;8.87;;;7.90;72.30;7.70;95056.00;;;;5108855;28;20226;-84
2022/12/10 00:26:20;;;;;;;9.30;7.70;;;7.90;72.30;7.70;95063.00;;;;5109955;28;20288;-84
2022/12/10 00:28:50;;;;;;;11.27;8.03;;;7.90;72.30;7.70;95065.00;;;;5109194;28;20263;-84
2022/12/10 00:31:19;;;;;;;10.10;7.80;;;7.90;72.40;7.70;95064.00;;;;5108980;28;20228;-85
2022/12/10 00:33:48;;;;;;;10.90;8.23;;;7.90;72.40;7.70;95066.00;;;;5109316;28;20301;-85
2022/12/10 00:36:19;;;;;;;11.27;8.10;;;7.90;72.30;7.70;95050.00;;;;5108536;28;20226;-83
2022/12/10 00:38:47;;;;;;;9.43;8.27;;;7.90;72.30;7.70;95053.00;;;;5110197;28;20194;-83
2022/12/10 00:41:15;;;;;;;10.73;7.93;;;7.80;72.30;7.70;95057.00;;;;5112402;28;20245;-85
2022/12/10 00:43:43;;;;;;;11.33;8.37;;;7.90;72.40;7.70;95052.00;;;;5112818;28;20253;-83
2022/12/10 00:46:12;;;;;;;12.37;8.33;;;7.90;72.40;7.70;95050.00;;;;5112630;28;20252;-86
2022/12/10 00:48:39;;;;;;;14.20;8.47;;;7.80;72.40;7.60;95052.00;;;;5113860;28;20214;-84
2022/12/10 00:51:10;;;;;;;12.60;8.93;;;7.90;72.40;7.70;95054.00;;;;5115681;28;20241;-83
2022/12/10 00:53:40;;;;;;;9.80;8.00;;;7.80;72.40;7.60;95051.00;;;;5115427;28;20731;-83
2022/12/10 00:56:10;;;;;;;10.83;8.10;;;7.90;72.40;7.70;95053.00;;;;5115729;28;20202;-84
2022/12/10 00:58:39;;;;;;;12.33;8.30;;;7.90;72.30;7.70;95062.00;;;;5115071;28;20213;-84
2022/12/10 01:01:14;;;;;;;11.40;7.97;;;7.90;72.20;7.70;95067.00;;;;5112795;28;20347;-86
2022/12/10 01:03:42;;;;;;;10.53;8.10;;;7.90;72.30;7.70;95074.00;;;;5112891;28;20364;-88
2022/12/10 01:06:15;;;;;;;9.90;8.20;;;7.90;72.30;7.70;95085.00;;;;5112407;28;20199;-84
2022/12/10 01:08:44;;;;;;;11.03;8.50;;;7.90;72.10;7.70;95079.00;;;;5112995;28;20633;-83
2022/12/10 01:11:14;;;;;;;11.40;8.97;;;7.90;72.10;7.70;95087.00;;;;5114416;28;20229;-84
2022/12/10 01:13:42;;;;;;;11.67;8.57;;;7.90;72.10;7.70;95090.00;;;;5114747;28;20317;-89
2022/12/10 01:16:13;;;;;;;11.83;8.33;;;7.90;72.20;7.70;95095.00;;;;5113606;28;20226;-84
2022/12/10 01:18:41;;;;;;;14.13;9.60;;;7.90;72.10;7.70;95094.00;;;;5113405;28;20785;-84
2022/12/10 01:21:13;;;;;;;11.63;8.80;;;7.90;72.10;7.70;95084.00;;;;5115428;28;20205;-84
2022/12/10 01:23:43;;;;;;;10.53;8.20;;;7.90;72.00;7.70;95085.00;;;;5114805;28;20219;-86
2022/12/10 01:26:14;;;;;;;12.40;8.47;;;7.90;72.00;7.70;95069.00;;;;5113493;28;20249;-86
2022/12/10 01:28:43;;;;;;;12.00;8.67;;;7.90;71.80;7.70;95082.00;;;;5115695;28;20653;-84
2022/12/10 01:31:14;;;;;;;12.93;9.20;;;7.90;71.90;7.60;95086.00;;;;5115373;28;20693;-85
2022/12/10 01:33:42;;;;;;;11.47;8.70;;;7.90;71.90;7.60;95085.00;;;;5112607;28;20307;-88
2022/12/10 01:36:13;;;;;;;10.63;8.40;;;7.80;72.60;7.60;95083.00;;;;5113850;28;20289;-84
2022/12/10 01:38:41;;;;;;;10.83;8.40;;;7.90;72.00;7.60;95092.00;;;;5114937;28;20203;-85
2022/12/10 01:41:14;;;;;;;10.80;8.30;;;7.90;72.20;7.60;95089.00;;;;5113345;28;20233;-84
2022/12/10 01:43:59;;;;;;;10.97;8.97;;;7.80;72.10;7.60;95101.00;;;;5111383;28;20268;-85
2022/12/10 01:46:31;;;;;;;11.07;8.60;;;7.90;72.20;7.60;95105.00;;;;5110381;28;20233;-84
2022/12/10 01:48:59;;;;;;;11.70;8.43;;;7.80;72.20;7.60;95112.00;;;;5109298;28;20198;-84
2022/12/10 01:51:30;;;;;;;12.40;8.93;;;7.80;72.10;7.60;95102.00;;;;5104411;28;20654;-85
2022/12/10 01:53:58;;;;;;;12.07;8.73;;;7.80;72.20;7.60;95102.00;;;;5106801;28;20219;-83
2022/12/10 01:56:25;;;;;;;12.03;8.67;;;7.80;72.20;7.60;95090.00;;;;5108903;28;20336;-83
2022/12/10 01:58:57;;;;;;;11.30;8.73;;;7.80;72.10;7.60;95097.00;;;;5110771;28;20199;-85
2022/12/10 02:01:37;;;;;;;10.43;8.93;;;7.80;72.20;7.60;95096.00;;;;5112255;28;20229;-85
2022/12/10 02:04:19;;;;;;;10.70;8.30;;;7.80;72.00;7.60;95094.00;;;;5111642;28;20260;-84
2022/12/10 02:06:59;;;;;;;11.73;8.17;;;7.90;72.00;7.60;95094.00;;;;5111229;28;20226;-85
2022/12/10 02:09:37;;;;;;;14.57;9.43;;;7.80;72.10;7.60;95096.00;;;;5109782;28;20229;-87
2022/12/10 02:12:16;;;;;;;10.07;7.80;;;7.80;72.30;7.60;95091.00;;;;5115448;28;20222;-83
2022/12/10 02:14:55;;;;;;;12.50;9.20;;;7.80;72.20;7.50;95092.00;;;;5119069;28;20267;-84
2022/12/10 02:17:29;;;;;;;12.50;8.27;;;7.80;72.10;7.50;95096.00;;;;5126268;28;20658;-83
2022/12/10 02:20:08;;;;;;;10.73;8.20;;;7.80;72.10;7.50;95095.00;;;;5126119;28;20197;-87
2022/12/10 02:22:41;;;;;;;11.33;9.10;;;7.80;72.10;7.50;95092.00;;;;5123480;28;20198;-86
2022/12/10 02:25:14;;;;;;;10.50;8.30;;;7.70;72.00;7.50;95080.00;;;;5124830;28;20218;-86
2022/12/10 02:27:50;;;;;;;11.87;8.23;;;7.70;72.70;7.50;95090.00;;;;5125372;28;20267;-85
2022/12/10 02:30:19;;;;;;;11.70;8.33;;;7.70;72.10;7.40;95095.00;;;;5122084;28;20250;-85
2022/12/10 02:32:50;;;;;;;10.87;8.47;;;7.70;72.20;7.40;95092.00;;;;5124339;28;20186;-85
2022/12/10 02:35:25;;;;;;;10.73;8.50;;;7.70;72.40;7.40;95098.00;;;;5122280;28;20233;-86
2022/12/10 02:37:58;;;;;;;11.33;8.67;;;7.70;72.60;7.40;95087.00;;;;5120287;28;20251;-85
2022/12/10 02:40:31;;;;;;;10.87;8.37;;;7.70;72.60;7.40;95077.00;;;;5119459;28;20222;-86
2022/12/10 02:42:58;;;;;;;11.83;8.87;;;7.70;72.60;7.40;95082.00;;;;5122020;28;20230;-85
2022/12/10 02:45:31;;;;;;;9.53;7.87;;;7.70;72.60;7.40;95091.00;;;;5117634;28;20243;-85
2022/12/10 02:48:02;;;;;;;11.60;8.80;;;7.60;72.60;7.30;95072.00;;;;5116688;28;20216;-83
2022/12/10 02:50:29;;;;;;;11.97;8.30;;;7.60;72.80;7.30;95085.00;;;;5114726;28;20282;-83
2022/12/10 02:52:56;;;;;;;11.00;8.80;;;7.60;72.80;7.30;95078.00;;;;5113209;28;20230;-85
2022/12/10 02:55:24;;;;;;;11.23;8.77;;;7.60;72.90;7.30;95089.00;;;;5112264;28;20392;-85
2022/12/10 02:58:15;;;;;;;11.43;8.73;;;7.60;72.90;7.30;95083.00;;;;5114587;28;20202;-84
2022/12/10 03:00:58;;;;;;;9.40;7.83;;;7.60;72.80;7.30;95077.00;;;;5114172;28;21164;-83
2022/12/10 03:03:39;;;;;;;11.87;9.13;;;7.60;72.70;7.30;95079.00;;;;5109892;28;20264;-82
2022/12/10 03:06:17;;;;;;;11.80;8.67;;;7.60;72.80;7.30;95072.00;;;;5107923;28;20677;-83
2022/12/10 03:08:51;;;;;;;10.93;8.27;;;7.60;72.80;7.30;95067.00;;;;5109989;28;20194;-84
2022/12/10 03:11:22;;;;;;;12.50;8.47;;;7.60;72.90;7.30;95077.00;;;;5109384;28;20214;-83
2022/12/10 03:13:56;;;;;;;11.07;8.77;;;7.60;73.00;7.30;95081.00;;;;5108873;28;20285;-84
2022/12/10 03:16:28;;;;;;;10.27;8.23;;;7.60;73.10;7.30;95077.00;;;;5108606;28;20185;-83
2022/12/10 03:19:04;;;;;;;11.43;8.53;;;7.50;73.10;7.30;95074.00;;;;5112197;28;20230;-82
2022/12/10 03:21:35;;;;;;;11.97;8.70;;;7.50;73.10;7.30;95086.00;;;;5111002;28;20241;-83
2022/12/10 03:24:03;;;;;;;12.27;9.57;;;7.50;73.20;7.30;95083.00;;;;5110843;28;20261;-83
2022/12/10 03:26:31;;;;;;;11.60;9.00;;;7.50;73.20;7.20;95065.00;;;;5109712;28;20600;-85
2022/12/10 03:29:05;;;;;;;13.73;9.43;;;7.50;73.20;7.20;95071.00;;;;5109705;28;20214;-82
2022/12/10 03:31:36;;;;;;;11.50;8.60;;;7.50;73.20;7.20;95063.00;;;;5112252;28;20730;-83
2022/12/10 03:34:05;;;;;;;12.27;9.47;;;7.50;73.30;7.20;95055.00;;;;5110419;28;20717;-84
2022/12/10 03:36:34;;;;;;;12.50;9.17;;;7.50;73.30;7.20;95057.00;;;;5112898;28;20226;-83
2022/12/10 03:39:02;;;;;;;11.90;9.20;;;7.40;73.30;7.20;95058.00;;;;5110364;28;20237;-84
2022/12/10 03:41:29;;;;;;;13.03;9.03;;;7.40;73.30;7.20;95069.00;;;;5111306;28;20230;-84
2022/12/10 03:43:59;;;;;;;13.40;9.83;;;7.40;73.50;7.20;95073.00;;;;5110646;28;20242;-85
2022/12/10 03:46:30;;;;;;;13.47;9.57;;;7.40;73.50;7.20;95082.00;;;;5105754;28;20290;-85
2022/12/10 03:49:00;;;;;;;13.23;9.40;;;7.40;74.20;7.20;95079.00;;;;5107603;28;20641;-84
2022/12/10 03:51:28;;;;;;;17.63;9.13;;;7.40;73.50;7.10;95067.00;;;;5105211;28;20702;-84
2022/12/10 03:53:55;;;;;;;13.50;9.57;;;7.40;73.50;7.10;95057.00;;;;5106217;28;20244;-85
2022/12/10 03:56:23;;;;;;;13.70;9.73;;;7.40;73.50;7.10;95067.00;;;;5108252;28;20226;-83
2022/12/10 03:58:50;;;;;;;11.33;9.77;;;7.40;73.60;7.10;95073.00;;;;5108647;28;20646;-85
2022/12/10 04:01:17;;;;;;;14.93;10.03;;;7.50;73.90;7.10;95078.00;;;;5106900;28;20230;-86
2022/12/10 04:03:46;;;;;;;12.13;8.63;;;7.40;73.50;7.20;95070.00;;;;5108623;28;20281;-84
2022/12/10 04:06:17;;;;;;;13.63;9.67;;;7.40;73.80;7.20;95065.00;;;;5106857;28;20245;-83
2022/12/10 04:08:46;;;;;;;15.10;9.63;;;7.40;73.70;7.20;95069.00;;;;5108814;28;20356;-84
2022/12/10 04:11:16;;;;;;;12.40;8.70;;;7.40;73.90;7.20;95065.00;;;;5107883;28;20203;-83
2022/12/10 04:16:30;;;;;;;14.50;9.13;;;7.50;73.80;7.20;95057.00;;;;5106933;28;20581;-84
2022/12/10 04:19:01;;;;;;;12.17;8.30;;;7.50;73.70;7.20;95067.00;;;;5109712;28;20257;-85
2022/12/10 04:27:11;;;;;;;14.23;9.13;;;7.50;73.60;7.10;95072.00;;;;5109724;28;20237;-85
2022/12/10 04:29:38;;;;;;;12.77;8.87;;;7.50;73.60;7.10;95089.00;;;;5108852;28;20203;-86
2022/12/10 04:32:06;;;;;;;13.67;9.43;;;7.40;73.70;7.10;95093.00;;;;5110268;28;21251;-85
2022/12/10 04:34:34;;;;;;;10.97;9.37;;;7.40;73.80;7.20;95079.00;;;;5109610;28;20223;-83
2022/12/10 04:37:04;;;;;;;11.43;9.00;;;7.40;73.80;7.20;95078.00;;;;5106616;28;20283;-83
2022/12/10 04:39:31;;;;;;;13.53;9.43;;;7.40;73.80;7.20;95082.00;;;;5108583;28;20688;-84
2022/12/10 04:41:59;;;;;;;11.77;9.40;;;7.40;73.80;7.20;95086.00;;;;5108001;28;20206;-87
2022/12/10 04:44:28;;;;;;;12.70;9.30;;;7.40;73.60;7.20;95078.00;;;;5106668;28;20291;-84
2022/12/10 04:46:55;;;;;;;13.43;9.17;;;7.40;73.70;7.20;95087.00;;;;5107540;28;20226;-85
2022/12/10 04:49:23;;;;;;;14.03;9.97;;;7.40;73.70;7.20;95093.00;;;;5107413;28;20285;-84
2022/12/10 04:51:52;;;;;;;14.40;9.50;;;7.40;73.70;7.20;95096.00;;;;5107903;28;20211;-83
2022/12/10 04:54:21;;;;;;;16.57;9.97;;;7.40;73.80;7.20;95103.00;;;;5108890;28;20219;-86
2022/12/10 04:56:48;;;;;;;11.90;9.40;;;7.40;73.80;7.20;95097.00;;;;5107562;28;20626;-87
2022/12/10 04:59:18;;;;;;;12.83;9.43;;;7.40;73.80;7.20;95105.00;;;;5110256;28;20285;-85
2022/12/10 05:01:46;;;;;;;13.07;9.63;;;7.40;73.80;7.20;95099.00;;;;5106647;28;20203;-83
2022/12/10 05:04:16;;;;;;;13.40;9.27;;;7.40;73.50;7.20;95098.00;;;;5108474;28;20826;-84
2022/12/10 05:06:44;;;;;;;13.33;9.63;;;7.40;73.40;7.20;95097.00;;;;5108583;28;20230;-84
2022/12/10 05:09:12;;;;;;;11.30;8.33;;;7.40;73.30;7.20;95092.00;;;;5108109;28;20195;-84
2022/12/10 05:11:42;;;;;;;13.10;9.40;;;7.40;73.40;7.10;95087.00;;;;5108812;28;20294;-84
2022/12/10 05:14:11;;;;;;;12.20;9.33;;;7.30;73.30;7.20;95092.00;;;;5108730;28;20288;-83
2022/12/10 05:16:38;;;;;;;13.03;9.63;;;7.40;73.50;7.20;95090.00;;;;5109519;28;20230;-84
2022/12/10 05:19:05;;;;;;;13.70;9.20;;;7.40;73.50;7.20;95085.00;;;;5106519;28;20242;-83
2022/12/10 05:24:14;;;;;;;13.97;10.40;;;7.40;73.50;7.10;95075.00;;;;5107682;28;20668;-84
2022/12/10 05:26:43;;;;;;;13.77;9.13;;;7.40;73.60;7.10;95083.00;;;;5107442;28;20209;-84
2022/12/10 05:29:12;;;;;;;14.40;9.43;;;7.40;73.70;7.10;95080.00;;;;5107834;28;20260;-83
2022/12/10 05:31:39;;;;;;;16.83;10.03;;;7.40;73.60;7.10;95076.00;;;;5106521;28;20229;-84
2022/12/10 05:34:07;;;;;;;13.37;9.37;;;7.40;73.60;7.10;95071.00;;;;5106683;28;20221;-85
2022/12/10 05:36:35;;;;;;;13.13;9.53;;;7.40;73.80;7.10;95077.00;;;;5108205;28;20232;-84
2022/12/10 05:39:02;;;;;;;14.40;9.43;;;7.40;73.90;7.10;95071.00;;;;5111649;28;20199;-83
2022/12/10 05:41:32;;;;;;;13.37;9.17;;;7.40;73.90;7.10;95079.00;;;;5110560;28;21288;-86
2022/12/10 05:44:01;;;;;;;13.70;9.70;;;7.40;74.00;7.10;95075.00;;;;5111021;28;20396;-86
2022/12/10 05:46:31;;;;;;;14.20;9.93;;;7.40;74.10;7.10;95072.00;;;;5110091;28;20269;-85
2022/12/10 05:49:00;;;;;;;15.53;9.40;;;7.40;74.00;7.10;95071.00;;;;5111332;28;20312;-84
2022/12/10 05:51:31;;;;;;;16.47;9.77;;;7.40;74.70;7.10;95080.00;;;;5108623;28;20629;-84
2022/12/10 05:54:01;;;;;;;18.83;9.90;;;7.40;74.00;7.10;95090.00;;;;5111864;28;20297;-84
2022/12/10 05:56:28;;;;;;;14.63;9.70;;;7.40;74.00;7.10;95098.00;;;;5108513;28;20310;-84
2022/12/10 05:59:00;;;;;;;13.87;10.30;;;7.40;74.00;7.20;95105.00;;;;5114762;28;20623;-84
2022/12/10 06:01:32;;;;;;;13.23;9.47;;;7.40;74.10;7.20;95113.00;;;;5110585;28;20262;-83
2022/12/10 06:04:01;;;;;;;19.77;10.03;;;7.40;74.10;7.20;95103.00;;;;5111784;28;20337;-85
2022/12/10 06:06:31;;;;;;;13.57;9.17;;;7.40;74.10;7.20;95104.00;;;;5110327;28;20688;-83
2022/12/10 06:08:59;;;;;;;14.90;9.80;;;7.50;74.20;7.20;95106.00;;;;5114628;28;20854;-86
2022/12/10 06:11:28;;;;;;;11.63;9.63;;;7.40;74.00;7.20;95101.00;;;;5111462;28;20259;-83
2022/12/10 06:13:57;;;;;;;12.73;8.87;;;7.40;74.10;7.20;95106.00;;;;5114600;28;20257;-83
2022/12/10 06:16:26;;;;;;;13.90;9.97;;;7.40;73.90;7.20;95100.00;;;;5113123;28;20727;-85
2022/12/10 06:18:56;;;;;;;13.33;9.47;;;7.50;74.00;7.20;95095.00;;;;5113521;28;20298;-85
2022/12/10 06:21:24;;;;;;;12.40;9.47;;;7.50;74.10;7.20;95099.00;;;;5109874;28;20205;-85
2022/12/10 06:23:52;;;;;;;14.20;9.90;;;7.40;74.00;7.20;95098.00;;;;5113719;28;20301;-83
2022/12/10 06:26:21;;;;;;;13.60;9.67;;;7.40;73.90;7.20;95114.00;;;;5113474;28;20234;-84
2022/12/10 06:28:50;;;;;;;13.27;9.77;;;7.50;73.90;7.20;95107.00;;;;5111474;28;20202;-84
2022/12/10 06:31:18;;;;;;;14.83;9.57;;;7.50;74.00;7.20;95108.00;;;;5110784;28;20727;-84
2022/12/10 06:33:46;;;;;;;13.50;9.53;;;7.50;74.00;7.20;95111.00;;;;5110936;28;20234;-84
2022/12/10 06:36:18;;;;;;;14.93;9.90;;;7.50;73.90;7.20;95109.00;;;;5112026;28;20303;-84
2022/12/10 06:38:46;;;;;;;14.37;10.00;;;7.50;73.90;7.20;95110.00;;;;5112874;28;20195;-84
2022/12/10 06:41:16;;;;;;;17.17;10.57;;;7.40;73.90;7.20;95103.00;;;;5110827;28;20210;-83
2022/12/10 06:43:44;;;;;;;13.77;9.27;;;7.50;74.00;7.20;95108.00;;;;5118820;28;20235;-84
2022/12/10 06:46:14;;;;;;;15.50;9.70;;;7.40;73.80;7.20;95108.00;;;;5119201;28;20203;-86
2022/12/10 06:48:42;;;;;;;14.33;9.77;;;7.50;73.80;7.20;95112.00;;;;5115292;28;20210;-84
2022/12/10 06:51:11;;;;;;;16.40;10.60;;;7.50;73.70;7.20;95113.00;;;;5113091;28;20235;-83
2022/12/10 06:53:42;;;;;;;12.77;9.77;;;7.50;73.80;7.20;95119.00;;;;5112864;28;20242;-85
2022/12/10 06:56:14;;;;;;;14.60;9.93;;;7.40;73.80;7.20;95116.00;;;;5111670;28;20348;-84
2022/12/10 06:58:43;;;;;;;15.77;9.57;;;7.50;73.90;7.20;95110.00;;;;5109454;28;20271;-86
2022/12/10 07:01:13;;;;;;;15.00;10.33;;;7.40;73.90;7.20;95108.00;;;;5112046;28;20209;-85
2022/12/10 07:03:41;;;;;;;16.33;10.73;;;7.40;74.00;7.20;95112.00;;;;5112877;28;20258;-84
2022/12/10 07:06:10;;;;;;;14.30;10.30;;;7.40;74.10;7.20;95113.00;;;;5111904;28;20238;-84
2022/12/10 07:08:39;;;;;;;15.10;9.83;;;7.40;74.00;7.20;95110.00;;;;5111073;28;20198;-84
2022/12/10 07:11:09;;;;;;;16.90;10.20;;;7.50;74.00;7.20;95119.00;;;;5109001;28;20297;-84
2022/12/10 07:13:37;;;;;;;13.20;9.47;;;7.50;74.70;7.20;95110.00;;;;5110631;28;20223;-85
2022/12/10 07:16:13;;;;;;;14.73;10.17;;;7.50;74.00;7.30;95109.00;;;;5109750;28;20337;-84
2022/12/10 07:18:40;;;;;;;13.50;9.93;;;7.50;74.10;7.30;95112.00;;;;5110741;28;20232;-86
2022/12/10 07:21:15;;;;;;;14.30;10.37;;;7.50;74.00;7.30;95120.00;;;;5109976;28;20194;-85
2022/12/10 07:23:44;;;;;;;15.03;10.37;;;7.50;73.90;7.30;95122.00;;;;5110236;28;20226;-85
2022/12/10 07:26:11;;;;;;;13.90;10.33;;;7.50;74.00;7.30;95116.00;;;;5110752;28;20232;-87
2022/12/10 07:28:39;;;;;;;19.17;11.20;;;7.50;74.00;7.30;95115.00;;;;5109887;28;20237;-86
2022/12/10 07:31:09;;;;;;;13.73;9.83;;;7.50;73.90;7.30;95116.00;;;;5108324;28;20226;-85
2022/12/10 07:33:37;;;;;;;15.10;10.27;;;7.50;73.70;7.30;95121.00;;;;5108370;28;20207;-86
2022/12/10 07:36:06;;;;;;;16.80;10.33;;;7.50;73.80;7.30;95123.00;;;;5101589;28;20218;-85
2022/12/10 07:38:33;;;;;;;15.20;10.63;;;7.50;73.80;7.30;95118.00;;;;5106948;28;20615;-86
2022/12/10 07:41:06;;;;;;;14.23;10.13;;;7.50;73.60;7.30;95126.00;;;;5106123;28;20285;-87
2022/12/10 07:43:35;;;;;;;14.73;10.10;;;7.50;73.50;7.40;95114.00;;;;5106240;28;20223;-89
2022/12/10 07:46:08;;;;;;;15.03;10.23;;;7.60;73.80;7.50;95118.00;;;;5105802;28;20271;-88
2022/12/10 07:48:37;;;;;;;15.03;10.20;;;7.60;73.80;7.50;95114.00;;;;5107451;28;20202;-88
2022/12/10 07:51:05;;;;;;;14.80;10.33;;;7.60;73.70;7.60;95126.00;;;;5106328;28;20194;-88
2022/12/10 07:53:32;;;;;;;15.37;10.97;;;7.60;73.70;7.60;95120.00;;;;5105767;28;20223;-89
2022/12/10 07:56:00;;;;;;;14.77;10.03;;;7.60;73.60;7.70;95131.00;;;;5106510;28;20321;-88
2022/12/10 07:58:28;;;;;;;15.17;10.43;;;7.70;73.50;7.70;95129.00;;;;5101952;28;20718;-89
2022/12/10 08:00:55;;;;;;;18.63;10.60;;;7.70;73.50;7.70;95136.00;;;;5103192;28;20207;-88
2022/12/10 08:03:23;;;;;;;17.10;10.23;;;7.70;73.50;7.70;95139.00;;;;5104529;28;20236;-88
2022/12/10 08:06:01;;;;;;;14.27;10.17;;;7.80;73.50;7.80;95140.00;;;;5105045;28;20209;-89
2022/12/10 08:08:28;;;;;;;18.33;11.10;;;7.80;73.50;7.80;95135.00;;;;5104258;28;20203;-89
2022/12/10 08:10:56;;;;;;;15.10;10.30;;;7.80;73.40;7.70;95134.00;;;;5104895;28;20202;-89
2022/12/10 08:13:23;;;;;;;16.10;10.80;;;7.80;73.40;7.80;95135.00;;;;5104269;28;20309;-88
2022/12/10 08:15:51;;;;;;;16.27;10.77;;;7.80;73.60;7.80;95132.00;;;;5103744;28;20646;-90
2022/12/10 08:18:19;;;;;;;17.00;10.63;;;7.80;73.20;7.80;95133.00;;;;5104416;28;20317;-88
2022/12/10 08:20:46;;;;;;;16.53;11.43;;;7.80;73.10;7.80;95129.00;;;;5103580;28;20329;-88
2022/12/10 08:23:13;;;;;;;16.27;10.63;;;7.90;73.10;7.80;95131.00;;;;5102159;28;20679;-88
2022/12/10 08:25:40;;;;;;;17.80;10.70;;;7.90;73.00;7.80;95128.00;;;;5104085;28;20285;-89
2022/12/10 08:28:10;;;;;;;15.23;10.47;;;7.90;73.00;7.80;95128.00;;;;5102990;28;20289;-88
2022/12/10 08:30:37;;;;;;;15.33;11.03;;;7.90;73.10;7.80;95128.00;;;;5104288;28;20249;-88
2022/12/10 08:33:06;;;;;;;16.50;11.13;;;7.80;72.90;7.80;95122.00;;;;5104457;28;20673;-89
2022/12/10 08:35:33;;;;;;;15.83;10.63;;;7.90;72.80;7.80;95133.00;;;;5104769;28;20309;-88
2022/12/10 08:38:01;;;;;;;21.27;11.40;;;7.90;72.90;7.80;95129.00;;;;5106540;28;20205;-89
2022/12/10 08:40:28;;;;;;;15.87;11.13;;;7.90;72.80;7.80;95134.00;;;;5106291;28;20249;-87
2022/12/10 08:42:55;;;;;;;16.73;11.30;;;7.90;72.70;7.80;95133.00;;;;5107972;28;20581;-88
2022/12/10 08:45:22;;;;;;;15.63;10.53;;;7.90;72.70;7.80;95147.00;;;;5107705;28;20303;-87
2022/12/10 08:47:49;;;;;;;17.33;11.07;;;7.90;72.60;7.80;95152.00;;;;5106131;28;20230;-89
2022/12/10 08:50:18;;;;;;;16.90;10.63;;;7.90;72.60;7.80;95152.00;;;;5105905;28;20217;-90
2022/12/10 08:52:45;;;;;;;15.47;10.50;;;7.90;72.80;7.80;95153.00;;;;5106097;28;20202;-89
2022/12/10 08:55:12;;;;;;;15.87;11.00;;;7.90;73.00;7.80;95153.00;;;;5105021;28;20315;-90
2022/12/10 08:57:40;;;;;;;17.40;11.47;;;7.90;73.00;7.80;95143.00;;;;5104779;28;20773;-90
2022/12/10 09:00:09;;;;;;;17.00;11.77;;;7.90;73.00;7.80;95147.00;;;;5104758;28;20211;-89
2022/12/10 09:02:36;;;;;;;16.80;11.70;;;7.90;73.10;7.80;95146.00;;;;5105963;28;21177;-89
2022/12/10 09:05:04;;;;;;;18.23;11.73;;;7.90;73.10;7.90;95143.00;;;;5103063;28;20301;-89
2022/12/10 09:07:33;;;;;;;17.17;11.50;;;7.90;73.10;7.90;95150.00;;;;5102587;28;20323;-87
2022/12/10 09:10:00;;;;;;;16.57;11.00;;;7.90;73.20;7.90;95149.00;;;;5106479;28;20226;-89
2022/12/10 09:12:27;;;;;;;15.50;10.43;;;7.90;73.70;7.90;95154.00;;;;5109099;28;21116;-90
2022/12/10 09:14:55;;;;;;;16.10;11.30;;;8.00;73.10;8.00;95164.00;;;;5109419;28;20335;-90
2022/12/10 09:17:23;;;;;;;17.30;12.07;;;8.00;73.10;8.00;95170.00;;;;5109763;28;20225;-90
2022/12/10 09:19:50;;;;;;;18.73;11.70;;;8.00;73.10;8.00;95175.00;;;;5104238;28;20328;-89
2022/12/10 09:22:17;;;;;;;18.67;10.87;;;8.00;73.10;7.90;95169.00;;;;5108810;28;20202;-91
2022/12/10 09:24:46;;;;;;;18.17;12.03;;;8.00;72.90;7.90;95161.00;;;;5108393;28;20238;-90
2022/12/10 09:27:13;;;;;;;18.13;10.97;;;8.00;72.80;7.90;95160.00;;;;5109491;28;20207;-89
2022/12/10 09:29:40;;;;;;;18.17;11.47;;;8.00;72.60;7.90;95157.00;;;;5110712;28;20285;-89
2022/12/10 09:32:07;;;;;;;16.07;11.77;;;8.00;72.50;7.90;95157.00;;;;5108678;28;20217;-90
2022/12/10 09:34:35;;;;;;;17.50;11.60;;;8.00;72.60;7.90;95149.00;;;;5109642;28;20253;-89
2022/12/10 09:37:02;;;;;;;17.00;11.13;;;8.00;72.70;7.90;95171.00;;;;5110368;28;20355;-89
2022/12/10 09:39:29;;;;;;;17.70;11.20;;;8.00;72.70;7.90;95166.00;;;;5111124;28;20211;-90
2022/12/10 09:42:23;;;;;;;16.87;11.37;;;8.00;72.60;7.90;95164.00;;;;5111657;28;20230;-90
2022/12/10 09:45:05;;;;;;;17.40;10.63;;;8.00;72.50;8.00;95166.00;;;;5107460;28;20254;-92
2022/12/10 09:47:41;;;;;;;16.07;10.80;;;8.00;72.60;8.00;95163.00;;;;5114844;28;20258;-89
2022/12/10 09:50:21;;;;;;;16.47;11.13;;;8.00;72.50;8.00;95165.00;;;;5115863;28;20285;-90
2022/12/10 09:52:50;;;;;;;16.87;10.83;;;8.00;72.30;7.90;95169.00;;;;5111751;28;20256;-88
2022/12/10 09:55:24;;;;;;;18.13;11.37;;;8.00;72.20;7.90;95176.00;;;;5112063;28;20215;-88
2022/12/10 09:57:54;;;;;;;17.33;12.00;;;8.00;71.90;7.90;95174.00;;;;5111170;28;20774;-89
2022/12/10 10:00:30;;;;;;;17.83;11.03;;;8.00;71.90;7.90;95178.00;;;;5109678;28;20279;-89
2022/12/10 10:03:00;;;;;;;18.20;12.13;;;8.00;72.20;7.90;95174.00;;;;5109471;28;21380;-89
2022/12/10 10:05:30;;;;;;;17.77;11.50;;;8.00;72.20;7.90;95166.00;;;;5108775;28;20293;-89
2022/12/10 10:08:02;;;;;;;22.57;12.40;;;8.00;72.00;7.80;95162.00;;;;5108397;28;20282;-91
2022/12/10 10:10:34;;;;;;;20.80;12.00;;;8.00;71.80;7.80;95168.00;;;;5109766;28;20210;-90
2022/12/10 10:13:24;;;;;;;20.47;12.93;;;8.00;71.80;7.80;95159.00;;;;5112818;28;20233;-89
2022/12/10 10:15:53;;;;;;;20.57;12.10;;;8.00;71.80;7.80;95158.00;;;;5111156;28;20227;-90
2022/12/10 10:18:32;;;;;;;20.63;12.37;;;8.00;72.20;7.90;95158.00;;;;5109884;28;20205;-89
2022/12/10 10:21:00;;;;;;;22.20;12.70;;;8.00;72.30;7.90;95157.00;;;;5104285;28;20244;-89
2022/12/10 10:23:28;;;;;;;20.93;12.60;;;8.00;72.30;7.80;95147.00;;;;5111923;28;20214;-89
2022/12/10 10:25:55;;;;;;;21.53;12.40;;;8.00;72.10;7.80;95154.00;;;;5108963;28;20233;-91
2022/12/10 10:28:24;;;;;;;19.30;12.47;;;8.00;72.10;7.80;95156.00;;;;5112070;28;20229;-89
2022/12/10 10:30:54;;;;;;;22.37;13.10;;;7.90;72.00;7.80;95159.00;;;;5108601;28;20234;-89
2022/12/10 10:33:21;;;;;;;24.27;13.67;;;7.90;72.00;7.80;95163.00;;;;5113567;28;20198;-89
2022/12/10 10:35:56;;;;;;;21.47;13.23;;;7.90;72.00;7.80;95163.00;;;;5112358;28;20335;-89
2022/12/10 10:38:28;;;;;;;20.47;12.80;;;7.90;71.90;7.80;95162.00;;;;5113829;28;20623;-89
2022/12/10 10:40:58;;;;;;;20.00;12.63;;;7.90;72.00;7.80;95159.00;;;;5101266;28;20667;-89
2022/12/10 10:43:32;;;;;;;18.77;12.03;;;8.00;72.00;7.80;95154.00;;;;5103681;28;20218;-89
2022/12/10 10:46:05;;;;;;;20.53;13.13;;;7.90;71.90;7.80;95161.00;;;;5117277;28;20293;-88
2022/12/10 10:48:33;;;;;;;22.13;13.33;;;7.90;72.00;7.80;95161.00;;;;5116843;28;20195;-89
2022/12/10 10:51:09;;;;;;;20.27;12.67;;;7.90;72.10;7.80;95158.00;;;;5105265;28;20234;-88
2022/12/10 10:53:44;;;;;;;19.77;12.70;;;7.90;72.10;7.90;95164.00;;;;5096539;28;20241;-91
2022/12/10 10:56:17;;;;;;;18.93;12.20;;;7.90;72.20;7.90;95153.00;;;;5107305;28;20217;-87
2022/12/10 10:59:07;;;;;;;20.27;12.47;;;8.00;72.30;7.90;95155.00;;;;5114926;28;20774;-88
2022/12/10 11:01:48;;;;;;;18.97;12.07;;;8.00;72.00;7.90;95153.00;;;;5111326;28;20855;-90
2022/12/10 11:04:22;;;;;;;17.30;11.63;;;8.00;72.80;7.90;95148.00;;;;5109843;28;20214;-90
2022/12/10 11:06:56;;;;;;;20.93;12.93;;;7.90;72.10;7.90;95149.00;;;;5108158;28;20293;-93
2022/12/10 11:09:30;;;;;;;19.03;12.80;;;8.00;72.10;7.90;95137.00;;;;5108662;28;20296;-90
2022/12/10 11:12:02;;;;;;;18.77;12.17;;;8.10;71.90;7.90;95143.00;;;;5108351;28;20229;-89
2022/12/10 11:14:36;;;;;;;23.20;13.33;;;8.00;71.70;7.90;95134.00;;;;5104032;28;20265;-89
2022/12/10 11:17:19;;;;;;;17.80;12.17;;;8.00;71.80;7.90;95141.00;;;;5109029;28;20302;-89
2022/12/10 11:19:58;;;;;;;20.23;12.57;;;8.00;71.70;7.90;95138.00;;;;5105036;28;20257;-88
2022/12/10 11:22:28;;;;;;;20.43;12.40;;;8.00;71.80;7.90;95134.00;;;;5105685;28;20294;-89
2022/12/10 11:24:55;;;;;;;20.00;12.60;;;8.00;71.90;7.90;95132.00;;;;5106450;28;20646;-89